sensor_id;sensor_type;location;lat;lon;timestamp;P1;P4;P2;P0;N10;N4;N25;N1;N05;TS
83101;SPS30;72973;51.784;4.660;2023-12-20T00:00:05;5.66;5.07;3.91;2.38;18.97;18.94;18.78;17.40;13.04;0.82
83101;SPS30;72973;51.784;4.660;2023-12-20T00:02:32;6.47;5.76;4.36;2.53;20.14;20.11;19.91;18.25;13.32;0.86
83101;SPS30;72973;51.784;4.660;2023-12-20T00:04:59;6.38;5.67;4.27;2.43;19.41;19.38;19.18;17.51;12.66;0.88
83101;SPS30;72973;51.784;4.660;2023-12-20T00:07:25;6.57;5.84;4.41;2.52;20.11;20.08;19.87;18.17;13.16;0.86
83101;SPS30;72973;51.784;4.660;2023-12-20T00:09:51;6.65;5.94;4.55;2.70;21.51;21.48;21.28;19.62;14.52;0.81
83101;SPS30;72973;51.784;4.660;2023-12-20T00:12:18;6.61;5.89;4.49;2.65;21.11;21.08;20.88;19.22;14.16;0.84
83101;SPS30;72973;51.784;4.660;2023-12-20T00:14:44;7.46;6.63;5.00;2.86;22.85;22.82;22.58;20.65;14.96;0.87
83101;SPS30;72973;51.784;4.660;2023-12-20T00:17:11;6.87;6.12;4.64;2.68;21.41;21.38;21.17;19.40;14.16;0.85
83101;SPS30;72973;51.784;4.660;2023-12-20T00:19:37;7.91;7.02;5.27;2.99;23.82;23.79;23.54;21.47;15.46;0.85
83101;SPS30;72973;51.784;4.660;2023-12-20T00:22:03;6.60;5.90;4.54;2.73;21.74;21.71;21.51;19.88;14.81;0.81
83101;SPS30;72973;51.784;4.660;2023-12-20T00:24:30;6.64;5.94;4.56;2.73;21.76;21.73;21.53;19.89;14.79;0.82
83101;SPS30;72973;51.784;4.660;2023-12-20T00:26:56;7.13;6.41;4.99;3.10;24.70;24.67;24.47;22.77;17.26;0.79
83101;SPS30;72973;51.784;4.660;2023-12-20T00:29:23;7.32;6.57;5.10;3.13;24.98;24.94;24.73;22.97;17.32;0.79
83101;SPS30;72973;51.784;4.660;2023-12-20T00:31:49;6.15;5.56;4.39;2.81;22.46;22.43;22.26;20.86;16.07;0.77
83101;SPS30;72973;51.784;4.660;2023-12-20T00:34:16;6.65;5.99;4.68;2.93;23.35;23.32;23.13;21.57;16.41;0.79
83101;SPS30;72973;51.784;4.660;2023-12-20T00:36:42;6.49;5.86;4.63;2.96;23.59;23.56;23.38;21.90;16.84;0.76
83101;SPS30;72973;51.784;4.660;2023-12-20T00:39:08;7.12;6.39;4.95;3.03;24.15;24.12;23.91;22.19;16.69;0.79
83101;SPS30;72973;51.784;4.660;2023-12-20T00:41:35;7.21;6.46;4.98;3.02;24.09;24.06;23.85;22.08;16.53;0.80
83101;SPS30;72973;51.784;4.660;2023-12-20T00:44:01;7.48;6.71;5.19;3.18;25.36;25.33;25.11;23.31;17.54;0.77
83101;SPS30;72973;51.784;4.660;2023-12-20T00:46:28;6.63;5.96;4.65;2.89;23.04;23.01;22.82;21.25;16.12;0.77
83101;SPS30;72973;51.784;4.660;2023-12-20T00:48:55;7.19;6.45;4.99;3.06;24.38;24.35;24.14;22.40;16.85;0.81
83101;SPS30;72973;51.784;4.660;2023-12-20T00:51:22;7.15;6.42;4.97;3.04;24.29;24.26;24.05;22.32;16.80;0.81
83101;SPS30;72973;51.784;4.660;2023-12-20T00:53:49;7.56;6.81;5.34;3.36;26.80;26.77;26.56;24.80;18.94;0.78
83101;SPS30;72973;51.784;4.660;2023-12-20T00:56:16;7.32;6.60;5.20;3.30;26.37;26.34;26.13;24.45;18.76;0.77
83101;SPS30;72973;51.784;4.660;2023-12-20T00:58:42;7.72;6.97;5.48;3.48;27.79;27.75;27.54;25.76;19.76;0.77
83101;SPS30;72973;51.784;4.660;2023-12-20T01:01:09;7.30;6.61;5.27;3.45;27.54;27.51;27.32;25.71;20.00;0.76
83101;SPS30;72973;51.784;4.660;2023-12-20T01:03:35;6.59;5.97;4.75;3.09;24.66;24.64;24.46;23.00;17.84;0.76
83101;SPS30;72973;51.784;4.660;2023-12-20T01:06:02;6.30;5.76;4.69;3.22;25.67;25.65;25.49;24.20;19.21;0.73
83101;SPS30;72973;51.784;4.660;2023-12-20T01:08:30;6.21;5.68;4.66;3.23;25.74;25.72;25.57;24.33;19.40;0.72
83101;SPS30;72973;51.784;4.660;2023-12-20T01:10:57;7.40;6.73;5.40;3.59;28.67;28.64;28.45;26.86;21.04;0.75
83101;SPS30;72973;51.784;4.660;2023-12-20T01:13:23;7.65;6.91;5.46;3.51;27.98;27.95;27.74;26.01;20.04;0.78
83101;SPS30;72973;51.784;4.660;2023-12-20T01:15:49;7.05;6.40;5.10;3.35;26.71;26.69;26.50;24.95;19.42;0.76
83101;SPS30;72973;51.784;4.660;2023-12-20T01:18:16;7.51;6.81;5.46;3.60;28.75;28.72;28.52;26.89;21.00;0.76
83101;SPS30;72973;51.784;4.660;2023-12-20T01:20:42;7.35;6.65;5.28;3.42;27.29;27.26;27.06;25.42;19.67;0.76
83101;SPS30;72973;51.784;4.660;2023-12-20T01:23:09;7.33;6.67;5.37;3.58;28.56;28.54;28.35;26.78;21.01;0.74
83101;SPS30;72973;51.784;4.660;2023-12-20T01:25:35;7.68;6.97;5.57;3.67;29.32;29.29;29.08;27.41;21.39;0.76
83101;SPS30;72973;51.784;4.660;2023-12-20T01:28:02;7.98;7.23;5.74;3.72;29.66;29.63;29.41;27.63;21.39;0.76
83101;SPS30;72973;51.784;4.660;2023-12-20T01:30:29;7.40;6.74;5.42;3.62;28.92;28.89;28.70;27.12;21.29;0.74
83101;SPS30;72973;51.784;4.660;2023-12-20T01:32:55;7.72;7.01;5.61;3.70;29.54;29.51;29.31;27.63;21.57;0.75
83101;SPS30;72973;51.784;4.660;2023-12-20T01:35:22;8.41;7.58;5.95;3.76;30.01;29.98;29.74;27.80;21.26;0.77
83101;SPS30;72973;51.784;4.660;2023-12-20T01:37:48;8.61;7.77;6.11;3.88;30.93;30.89;30.65;28.67;21.97;0.76
83101;SPS30;72973;51.784;4.660;2023-12-20T01:40:14;8.69;7.81;6.09;3.79;30.26;30.22;29.97;27.92;21.19;0.79
83101;SPS30;72973;51.784;4.660;2023-12-20T01:42:41;8.98;8.09;6.34;3.99;31.85;31.82;31.56;29.47;22.50;0.79
83101;SPS30;72973;51.784;4.660;2023-12-20T01:45:08;8.60;7.76;6.11;3.89;31.03;31.00;30.76;28.78;22.09;0.79
83101;SPS30;72973;51.784;4.660;2023-12-20T01:47:34;8.15;7.34;5.76;3.63;28.94;28.91;28.68;26.78;20.46;0.77
83101;SPS30;72973;51.784;4.660;2023-12-20T01:50:02;8.26;7.43;5.80;3.62;28.91;28.88;28.64;26.70;20.30;0.78
83101;SPS30;72973;51.784;4.660;2023-12-20T01:52:29;8.92;7.99;6.16;3.73;29.76;29.72;29.46;27.28;20.41;0.81
83101;SPS30;72973;51.784;4.660;2023-12-20T01:54:57;9.62;8.56;6.49;3.76;30.01;29.97;29.67;27.21;19.86;0.84
83101;SPS30;72973;51.784;4.660;2023-12-20T01:57:28;9.42;8.39;6.37;3.70;29.51;29.47;29.18;26.77;19.57;0.84
83101;SPS30;72973;51.784;4.660;2023-12-20T01:59:55;9.89;8.81;6.68;3.88;30.93;30.89;30.58;28.05;20.50;0.82
83101;SPS30;72973;51.784;4.660;2023-12-20T02:02:22;9.43;8.42;6.44;3.82;30.47;30.43;30.15;27.79;20.56;0.79
83101;SPS30;72973;51.784;4.660;2023-12-20T02:04:49;8.55;7.65;5.86;3.50;27.91;27.88;27.62;25.49;18.93;0.82
83101;SPS30;72973;51.784;4.660;2023-12-20T02:07:17;8.32;7.44;5.70;3.40;27.12;27.09;26.84;24.77;18.38;0.82
83101;SPS30;72973;51.784;4.660;2023-12-20T02:09:44;10.55;9.34;6.96;3.85;30.69;30.64;30.30;27.47;19.48;0.89
83101;SPS30;72973;51.784;4.660;2023-12-20T02:12:11;11.37;10.03;7.41;4.00;31.86;31.81;31.43;28.32;19.75;0.91
83101;SPS30;72973;51.784;4.660;2023-12-20T02:14:37;9.77;8.67;6.52;3.69;29.44;29.40;29.09;26.52;19.10;0.86
83101;SPS30;72973;51.784;4.660;2023-12-20T02:17:04;9.33;8.29;6.25;3.57;28.50;28.46;28.16;25.74;18.64;0.86
83101;SPS30;72973;51.784;4.660;2023-12-20T02:19:30;9.59;8.53;6.44;3.70;29.53;29.49;29.19;26.71;19.40;0.86
83101;SPS30;72973;51.784;4.660;2023-12-20T02:22:04;8.79;7.84;5.97;3.51;27.96;27.92;27.65;25.42;18.70;0.85
83101;SPS30;72973;51.784;4.660;2023-12-20T02:24:32;8.11;7.27;5.63;3.43;27.40;27.36;27.13;25.16;18.90;0.81
83101;SPS30;72973;51.784;4.660;2023-12-20T02:26:59;9.18;8.23;6.36;3.87;30.86;30.82;30.55;28.32;21.25;0.81
83101;SPS30;72973;51.784;4.660;2023-12-20T02:29:25;10.44;9.29;7.04;4.08;32.55;32.51;32.18;29.51;21.54;0.85
83101;SPS30;72973;51.784;4.660;2023-12-20T02:31:52;9.16;8.16;6.19;3.60;28.72;28.68;28.40;26.06;19.06;0.85
83101;SPS30;72973;51.784;4.660;2023-12-20T02:34:19;10.22;9.08;6.82;3.86;30.77;30.72;30.40;27.71;19.94;0.89
83101;SPS30;72973;51.784;4.660;2023-12-20T02:36:45;10.59;9.37;6.96;3.82;30.42;30.38;30.03;27.17;19.16;0.89
83101;SPS30;72973;51.784;4.660;2023-12-20T02:39:11;10.91;9.66;7.21;4.01;32.02;31.97;31.62;28.71;20.45;0.87
83101;SPS30;72973;51.784;4.660;2023-12-20T02:41:39;10.88;9.61;7.11;3.87;30.84;30.79;30.43;27.47;19.26;0.91
83101;SPS30;72973;51.784;4.660;2023-12-20T02:44:05;11.09;9.80;7.25;3.93;31.37;31.32;30.96;27.94;19.57;0.92
83101;SPS30;72973;51.784;4.660;2023-12-20T02:46:32;11.29;9.96;7.34;3.95;31.53;31.48;31.10;28.01;19.50;0.91
83101;SPS30;72973;51.784;4.660;2023-12-20T02:48:58;11.10;9.79;7.22;3.88;30.94;30.89;30.52;27.47;19.11;0.91
83101;SPS30;72973;51.784;4.660;2023-12-20T02:51:24;12.00;10.54;7.68;3.98;31.73;31.68;31.27;27.88;18.89;0.94
83101;SPS30;72973;51.784;4.660;2023-12-20T02:53:51;11.77;10.36;7.58;3.98;31.75;31.70;31.30;28.01;19.18;0.94
83101;SPS30;72973;51.784;4.660;2023-12-20T02:56:18;11.52;10.13;7.41;3.90;31.06;31.01;30.62;27.40;18.76;0.93
83101;SPS30;72973;51.784;4.660;2023-12-20T02:58:44;11.13;9.82;7.24;3.89;31.01;30.96;30.59;27.53;19.15;0.90
83101;SPS30;72973;51.784;4.660;2023-12-20T03:01:11;11.33;9.99;7.34;3.91;31.21;31.16;30.78;27.65;19.12;0.90
83101;SPS30;72973;51.784;4.660;2023-12-20T03:03:37;10.64;9.38;6.88;3.65;29.11;29.06;28.71;25.75;17.75;0.91
83101;SPS30;72973;51.784;4.660;2023-12-20T03:06:04;10.49;9.26;6.84;3.69;29.43;29.38;29.03;26.16;18.26;0.89
83101;SPS30;72973;51.784;4.660;2023-12-20T03:08:30;10.77;9.50;6.99;3.74;29.80;29.75;29.39;26.42;18.32;0.91
83101;SPS30;72973;51.784;4.660;2023-12-20T03:10:56;9.97;8.81;6.53;3.57;28.48;28.44;28.11;25.41;17.88;0.90
83101;SPS30;72973;51.784;4.660;2023-12-20T03:13:25;10.65;9.44;7.06;3.95;31.51;31.46;31.12;28.29;20.21;0.88
83101;SPS30;72973;51.784;4.660;2023-12-20T03:15:51;9.47;8.40;6.31;3.58;28.54;28.49;28.19;25.71;18.52;0.88
83101;SPS30;72973;51.784;4.660;2023-12-20T03:18:18;9.95;8.84;6.66;3.80;30.31;30.27;29.96;27.37;19.80;0.87
83101;SPS30;72973;51.784;4.660;2023-12-20T03:20:44;10.46;9.26;6.90;3.83;30.52;30.47;30.13;27.33;19.41;0.88
83101;SPS30;72973;51.784;4.660;2023-12-20T03:23:10;9.12;8.12;6.16;3.57;28.45;28.41;28.12;25.78;18.82;0.85
83101;SPS30;72973;51.784;4.660;2023-12-20T03:25:37;11.01;9.74;7.26;4.02;32.02;31.97;31.62;28.67;20.34;0.89
83101;SPS30;72973;51.784;4.660;2023-12-20T03:28:04;11.81;10.42;7.68;4.12;32.87;32.81;32.42;29.17;20.27;0.93
83101;SPS30;72973;51.784;4.660;2023-12-20T03:30:30;11.56;10.15;7.38;3.80;30.32;30.26;29.86;26.58;17.93;0.96
83101;SPS30;72973;51.784;4.660;2023-12-20T03:32:57;12.09;10.68;7.90;4.28;34.16;34.11;33.71;30.41;21.29;0.91
83101;SPS30;72973;51.784;4.660;2023-12-20T03:35:23;11.35;10.02;7.41;4.01;31.98;31.92;31.55;28.45;19.89;0.92
83101;SPS30;72973;51.784;4.660;2023-12-20T03:37:49;10.22;9.02;6.67;3.61;28.80;28.76;28.42;25.63;17.92;0.90
83101;SPS30;72973;51.784;4.660;2023-12-20T03:40:16;11.31;9.98;7.35;3.94;31.42;31.37;30.99;27.88;19.36;0.91
83101;SPS30;72973;51.784;4.660;2023-12-20T03:42:42;10.83;9.54;7.01;3.72;29.66;29.61;29.25;26.25;18.10;0.93
83101;SPS30;72973;51.784;4.660;2023-12-20T03:45:09;10.66;9.44;7.03;3.90;31.07;31.02;30.68;27.82;19.75;0.90
83101;SPS30;72973;51.784;4.660;2023-12-20T03:47:35;10.62;9.40;6.98;3.84;30.61;30.56;30.22;27.35;19.32;0.90
83101;SPS30;72973;51.784;4.660;2023-12-20T03:50:02;11.29;9.96;7.35;3.96;31.57;31.52;31.14;28.05;19.54;0.94
83101;SPS30;72973;51.784;4.660;2023-12-20T03:52:28;11.17;9.83;7.19;3.77;30.04;29.99;29.61;26.48;18.10;0.94
83101;SPS30;72973;51.784;4.660;2023-12-20T03:54:55;11.44;10.05;7.32;3.79;30.22;30.17;29.78;26.55;17.98;0.94
83101;SPS30;72973;51.784;4.660;2023-12-20T03:57:21;11.08;9.76;7.16;3.79;30.23;30.17;29.80;26.72;18.39;0.92
83101;SPS30;72973;51.784;4.660;2023-12-20T03:59:47;11.33;9.98;7.33;3.89;31.04;30.98;30.60;27.46;18.95;0.92
83101;SPS30;72973;51.784;4.660;2023-12-20T04:02:14;11.60;10.22;7.50;3.99;31.78;31.73;31.34;28.12;19.40;0.93
83101;SPS30;72973;51.784;4.660;2023-12-20T04:04:40;11.09;9.78;7.21;3.87;30.86;30.80;30.44;27.39;19.04;0.90
83101;SPS30;72973;51.784;4.660;2023-12-20T04:07:08;9.96;8.82;6.59;3.68;29.31;29.27;28.95;26.30;18.75;0.87
83101;SPS30;72973;51.784;4.660;2023-12-20T04:09:34;10.86;9.61;7.15;3.95;31.54;31.49;31.14;28.23;20.01;0.89
83101;SPS30;72973;51.784;4.660;2023-12-20T04:12:01;11.06;9.77;7.23;3.92;31.27;31.22;30.86;27.84;19.49;0.90
83101;SPS30;72973;51.784;4.660;2023-12-20T04:14:27;10.95;9.71;7.28;4.09;32.65;32.60;32.26;29.37;21.06;0.87
83101;SPS30;72973;51.784;4.660;2023-12-20T04:16:54;11.36;10.07;7.52;4.19;33.40;33.35;32.99;29.96;21.35;0.87
83101;SPS30;72973;51.784;4.660;2023-12-20T04:19:20;10.88;9.62;7.14;3.91;31.20;31.15;30.79;27.85;19.63;0.89
83101;SPS30;72973;51.784;4.660;2023-12-20T04:21:47;10.65;9.43;7.02;3.88;30.97;30.93;30.58;27.73;19.67;0.89
83101;SPS30;72973;51.784;4.660;2023-12-20T04:24:13;10.22;9.04;6.73;3.71;29.59;29.54;29.21;26.46;18.73;0.90
83101;SPS30;72973;51.784;4.660;2023-12-20T04:26:40;10.77;9.53;7.09;3.92;31.28;31.23;30.88;27.99;19.84;0.86
83101;SPS30;72973;51.784;4.660;2023-12-20T04:29:06;10.64;9.43;7.05;3.95;31.47;31.43;31.09;28.26;20.19;0.84
83101;SPS30;72973;51.784;4.660;2023-12-20T04:31:33;10.62;9.40;7.02;3.90;31.10;31.05;30.71;27.88;19.83;0.87
83101;SPS30;72973;51.784;4.660;2023-12-20T04:33:59;10.49;9.29;6.93;3.86;30.75;30.70;30.36;27.56;19.61;0.88
83101;SPS30;72973;51.784;4.660;2023-12-20T04:36:26;10.46;9.29;6.99;3.98;31.73;31.69;31.36;28.63;20.67;0.85
83101;SPS30;72973;51.784;4.660;2023-12-20T04:38:53;9.91;8.79;6.59;3.72;29.67;29.62;29.31;26.70;19.17;0.88
83101;SPS30;72973;51.784;4.660;2023-12-20T04:41:19;10.21;9.08;6.86;3.94;31.44;31.40;31.08;28.44;20.65;0.85
83101;SPS30;72973;51.784;4.660;2023-12-20T04:43:46;9.80;8.74;6.65;3.90;31.09;31.05;30.75;28.27;20.77;0.83
83101;SPS30;72973;51.784;4.660;2023-12-20T04:46:12;10.55;9.38;7.10;4.09;32.61;32.56;32.24;29.52;21.47;0.85
83101;SPS30;72973;51.784;4.660;2023-12-20T04:48:38;9.64;8.59;6.52;3.80;30.30;30.25;29.96;27.50;20.13;0.84
83101;SPS30;72973;51.784;4.660;2023-12-20T04:51:05;10.07;8.94;6.72;3.80;30.34;30.30;29.98;27.34;19.68;0.85
83101;SPS30;72973;51.784;4.660;2023-12-20T04:53:32;10.79;9.55;7.11;3.92;31.28;31.23;30.89;27.99;19.83;0.88
83101;SPS30;72973;51.784;4.660;2023-12-20T04:55:58;10.74;9.51;7.08;3.92;31.28;31.23;30.88;28.01;19.88;0.88
83101;SPS30;72973;51.784;4.660;2023-12-20T04:58:24;11.71;10.35;7.69;4.23;33.70;33.65;33.27;30.11;21.26;0.89
83101;SPS30;72973;51.784;4.660;2023-12-20T05:00:51;11.75;10.38;7.67;4.15;33.10;33.05;32.66;29.45;20.59;0.89
83101;SPS30;72973;51.784;4.660;2023-12-20T05:03:18;11.82;10.47;7.81;4.35;34.69;34.63;34.25;31.10;22.15;0.89
83101;SPS30;72973;51.784;4.660;2023-12-20T05:05:44;12.77;11.32;8.46;4.73;37.73;37.67;37.26;33.87;24.18;0.88
83101;SPS30;72973;51.784;4.660;2023-12-20T05:08:11;11.79;10.44;7.78;4.30;34.31;34.26;33.88;30.72;21.79;0.89
83101;SPS30;72973;51.784;4.660;2023-12-20T05:10:37;11.69;10.40;7.86;4.54;36.18;36.13;35.76;32.75;23.84;0.86
83101;SPS30;72973;51.784;4.660;2023-12-20T05:13:04;10.87;9.67;7.32;4.23;33.72;33.67;33.33;30.53;22.24;0.87
83101;SPS30;72973;51.784;4.660;2023-12-20T05:15:30;12.51;11.03;8.14;4.38;34.90;34.84;34.43;31.00;21.57;0.93
83101;SPS30;72973;51.784;4.660;2023-12-20T05:17:57;12.20;10.77;7.96;4.30;34.27;34.22;33.81;30.47;21.27;0.91
83101;SPS30;72973;51.784;4.660;2023-12-20T05:20:23;10.95;9.73;7.33;4.18;33.36;33.31;32.96;30.11;21.78;0.86
83101;SPS30;72973;51.784;4.660;2023-12-20T05:22:50;10.19;9.07;6.88;4.00;31.90;31.85;31.54;28.93;21.15;0.86
83101;SPS30;72973;51.784;4.660;2023-12-20T05:25:16;11.42;10.13;7.61;4.31;34.40;34.35;33.99;31.00;22.32;0.88
83101;SPS30;72973;51.784;4.660;2023-12-20T05:27:43;9.95;8.84;6.65;3.79;30.19;30.15;29.83;27.23;19.66;0.86
83101;SPS30;72973;51.784;4.660;2023-12-20T05:30:09;10.29;9.14;6.87;3.89;31.03;30.98;30.65;27.96;20.13;0.86
83101;SPS30;72973;51.784;4.660;2023-12-20T05:32:36;11.07;9.83;7.38;4.18;33.32;33.27;32.92;30.01;21.60;0.86
83101;SPS30;72973;51.784;4.660;2023-12-20T05:35:03;11.01;9.74;7.26;4.01;32.00;31.95;31.59;28.64;20.31;0.88
83101;SPS30;72973;51.784;4.660;2023-12-20T05:37:29;11.31;9.96;7.29;3.83;30.58;30.53;30.14;26.99;18.49;0.93
83101;SPS30;72973;51.784;4.660;2023-12-20T05:39:56;11.92;10.52;7.75;4.16;33.14;33.08;32.69;29.41;20.43;0.91
83101;SPS30;72973;51.784;4.660;2023-12-20T05:42:22;10.13;8.98;6.71;3.75;29.90;29.85;29.53;26.84;19.15;0.88
83101;SPS30;72973;51.784;4.660;2023-12-20T05:44:49;10.75;9.52;7.10;3.94;31.45;31.40;31.05;28.18;20.04;0.89
83101;SPS30;72973;51.784;4.660;2023-12-20T05:47:15;9.85;8.74;6.55;3.69;29.43;29.38;29.07;26.47;18.99;0.87
83101;SPS30;72973;51.784;4.660;2023-12-20T05:49:42;10.64;9.44;7.09;4.00;31.93;31.88;31.54;28.74;20.66;0.86
83101;SPS30;72973;51.784;4.660;2023-12-20T05:52:10;9.41;8.41;6.43;3.82;30.46;30.42;30.13;27.78;20.56;0.83
83101;SPS30;72973;51.784;4.660;2023-12-20T05:54:36;9.57;8.53;6.47;3.76;30.01;29.97;29.67;27.23;19.92;0.84
83101;SPS30;72973;51.784;4.660;2023-12-20T05:57:02;10.30;9.23;7.13;4.34;34.59;34.54;34.24;31.74;23.80;0.81
83101;SPS30;72973;51.784;4.660;2023-12-20T05:59:29;9.66;8.65;6.65;4.00;31.88;31.84;31.55;29.17;21.74;0.82
83101;SPS30;72973;51.784;4.660;2023-12-20T06:01:55;11.90;10.63;8.14;4.84;38.61;38.56;38.20;35.23;26.11;0.82
83101;SPS30;72973;51.784;4.660;2023-12-20T06:04:22;10.78;9.61;7.30;4.26;34.01;33.96;33.63;30.89;22.64;0.83
83101;SPS30;72973;51.784;4.660;2023-12-20T06:06:48;11.09;9.88;7.50;4.36;34.79;34.74;34.40;31.57;23.10;0.82
83101;SPS30;72973;51.784;4.660;2023-12-20T06:09:15;11.31;10.05;7.57;4.33;34.51;34.46;34.11;31.17;22.56;0.85
83101;SPS30;72973;51.784;4.660;2023-12-20T06:11:42;11.89;10.59;8.03;4.67;37.23;37.18;36.81;33.77;24.69;0.82
83101;SPS30;72973;51.784;4.660;2023-12-20T06:14:08;12.46;11.06;8.31;4.71;37.53;37.48;37.08;33.81;24.34;0.87
83101;SPS30;72973;51.784;4.660;2023-12-20T06:16:35;10.96;9.77;7.42;4.33;34.53;34.48;34.15;31.35;22.97;0.84
83101;SPS30;72973;51.784;4.660;2023-12-20T06:19:01;11.28;10.10;7.77;4.68;37.33;37.28;36.94;34.17;25.50;0.81
83101;SPS30;72973;51.784;4.660;2023-12-20T06:21:28;10.26;9.18;7.07;4.27;34.04;34.00;33.69;31.18;23.29;0.82
83101;SPS30;72973;51.784;4.660;2023-12-20T06:23:54;10.77;9.63;7.40;4.44;35.45;35.41;35.09;32.43;24.15;0.83
83101;SPS30;72973;51.784;4.660;2023-12-20T06:26:21;11.98;10.60;7.88;4.34;34.58;34.52;34.13;30.91;21.85;0.88
83101;SPS30;72973;51.784;4.660;2023-12-20T06:28:47;13.11;11.55;8.48;4.51;36.00;35.93;35.50;31.87;22.01;0.93
83101;SPS30;72973;51.784;4.660;2023-12-20T06:31:14;11.35;10.04;7.45;4.08;32.55;32.49;32.12;29.05;20.48;0.91
83101;SPS30;72973;51.784;4.660;2023-12-20T06:33:40;11.53;10.21;7.62;4.23;33.73;33.67;33.30;30.22;21.48;0.90
83101;SPS30;72973;51.784;4.660;2023-12-20T06:36:10;11.26;9.97;7.44;4.14;33.01;32.96;32.59;29.59;21.06;0.89
83101;SPS30;72973;51.784;4.660;2023-12-20T06:38:37;11.74;10.38;7.71;4.24;33.82;33.76;33.38;30.22;21.34;0.89
83101;SPS30;72973;51.784;4.660;2023-12-20T06:41:04;11.40;10.05;7.39;3.95;31.50;31.44;31.06;27.92;19.34;0.90
83101;SPS30;72973;51.784;4.660;2023-12-20T06:43:30;12.00;10.63;7.93;4.41;35.17;35.12;34.73;31.53;22.44;0.87
83101;SPS30;72973;51.784;4.660;2023-12-20T06:45:58;11.98;10.55;7.75;4.11;32.76;32.70;32.30;28.98;19.97;0.90
83101;SPS30;72973;51.784;4.660;2023-12-20T06:48:26;12.53;11.06;8.16;4.39;34.99;34.93;34.52;31.08;21.64;0.91
83101;SPS30;72973;51.784;4.660;2023-12-20T06:50:53;13.67;12.03;8.80;4.63;36.90;36.83;36.37;32.55;22.29;0.95
83101;SPS30;72973;51.784;4.660;2023-12-20T06:53:20;12.36;10.90;8.02;4.29;34.20;34.14;33.73;30.32;21.01;0.92
83101;SPS30;72973;51.784;4.660;2023-12-20T06:55:46;11.62;10.26;7.58;4.09;32.63;32.58;32.20;29.02;20.25;0.91
83101;SPS30;72973;51.784;4.660;2023-12-20T06:58:13;13.02;11.43;8.32;4.31;34.34;34.28;33.83;30.15;20.41;0.94
83101;SPS30;72973;51.784;4.660;2023-12-20T07:00:39;12.09;10.69;7.94;4.36;34.78;34.72;34.33;31.07;21.93;0.87
83101;SPS30;72973;51.784;4.660;2023-12-20T07:03:05;11.02;9.79;7.39;4.23;33.72;33.67;33.33;30.47;22.08;0.85
83101;SPS30;72973;51.784;4.660;2023-12-20T07:05:32;11.16;9.85;7.26;3.91;31.14;31.09;30.72;27.66;19.25;0.91
83101;SPS30;72973;51.784;4.660;2023-12-20T07:07:59;11.70;10.33;7.64;4.15;33.10;33.05;32.66;29.47;20.65;0.89
83101;SPS30;72973;51.784;4.660;2023-12-20T07:10:25;13.06;11.60;8.73;4.96;39.58;39.52;39.11;35.69;25.76;0.87
83101;SPS30;72973;51.784;4.660;2023-12-20T07:12:52;11.78;10.52;8.04;4.76;37.97;37.92;37.56;34.61;25.58;0.84
83101;SPS30;72973;51.784;4.660;2023-12-20T07:15:21;10.80;9.62;7.29;4.22;33.70;33.65;33.31;30.54;22.30;0.85
83101;SPS30;72973;51.784;4.660;2023-12-20T07:17:48;11.23;9.95;7.45;4.17;33.28;33.23;32.87;29.89;21.37;0.88
83101;SPS30;72973;51.784;4.660;2023-12-20T07:20:14;12.12;10.68;7.84;4.15;33.13;33.07;32.66;29.29;20.18;0.91
83101;SPS30;72973;51.784;4.660;2023-12-20T07:22:41;11.97;10.55;7.76;4.14;33.03;32.97;32.58;29.27;20.26;0.90
83101;SPS30;72973;51.784;4.660;2023-12-20T07:25:07;11.24;9.92;7.32;3.95;31.49;31.43;31.06;27.98;19.51;0.90
83101;SPS30;72973;51.784;4.660;2023-12-20T07:27:34;10.28;9.11;6.81;3.80;30.29;30.25;29.92;27.18;19.39;0.87
83101;SPS30;72973;51.784;4.660;2023-12-20T07:30:01;11.42;10.16;7.69;4.44;35.38;35.33;34.98;32.04;23.33;0.84
83101;SPS30;72973;51.784;4.660;2023-12-20T07:32:28;11.34;10.11;7.68;4.49;35.82;35.77;35.42;32.53;23.86;0.84
83101;SPS30;72973;51.784;4.660;2023-12-20T07:34:55;12.18;10.79;8.05;4.48;35.77;35.71;35.32;32.08;22.85;0.90
83101;SPS30;72973;51.784;4.660;2023-12-20T07:37:21;11.48;10.14;7.52;4.11;32.77;32.72;32.35;29.24;20.57;0.90
83101;SPS30;72973;51.784;4.660;2023-12-20T07:39:48;11.38;10.07;7.49;4.13;32.91;32.86;32.49;29.43;20.82;0.89
83101;SPS30;72973;51.784;4.660;2023-12-20T07:42:14;12.32;10.86;7.98;4.26;33.98;33.92;33.51;30.11;20.84;0.92
83101;SPS30;72973;51.784;4.660;2023-12-20T07:44:41;12.23;10.78;7.93;4.24;33.80;33.74;33.33;29.96;20.76;0.92
83101;SPS30;72973;51.784;4.660;2023-12-20T07:47:07;11.75;10.35;7.60;4.03;32.17;32.11;31.72;28.46;19.63;0.93
83101;SPS30;72973;51.784;4.660;2023-12-20T07:49:34;12.30;10.84;7.97;4.25;33.91;33.85;33.44;30.04;20.79;0.93
83101;SPS30;72973;51.784;4.660;2023-12-20T07:52:00;12.69;11.18;8.22;4.37;34.86;34.80;34.38;30.86;21.32;0.93
83101;SPS30;72973;51.784;4.660;2023-12-20T07:54:27;11.91;10.58;7.96;4.54;36.17;36.12;35.74;32.63;23.57;0.87
83101;SPS30;72973;51.784;4.660;2023-12-20T07:56:53;12.31;10.93;8.22;4.66;37.18;37.13;36.74;33.51;24.15;0.88
83101;SPS30;72973;51.784;4.660;2023-12-20T07:59:20;12.73;11.27;8.40;4.66;37.20;37.14;36.73;33.33;23.69;0.89
83101;SPS30;72973;51.784;4.660;2023-12-20T08:01:46;12.49;11.22;8.70;5.35;42.69;42.64;42.28;39.28;29.63;0.81
83101;SPS30;72973;51.784;4.660;2023-12-20T08:04:12;11.55;10.30;7.84;4.60;36.66;36.61;36.25;33.32;24.49;0.84
83101;SPS30;72973;51.784;4.660;2023-12-20T08:06:39;12.63;11.25;8.53;4.96;39.52;39.47;39.08;35.84;26.20;0.85
83101;SPS30;72973;51.784;4.660;2023-12-20T08:09:05;11.41;10.20;7.82;4.67;37.24;37.19;36.85;34.02;25.26;0.84
83101;SPS30;72973;51.784;4.660;2023-12-20T08:11:32;12.11;10.78;8.17;4.73;37.71;37.65;37.28;34.17;24.93;0.84
83101;SPS30;72973;51.784;4.660;2023-12-20T08:13:58;11.78;10.49;7.94;4.59;36.60;36.55;36.18;33.15;24.16;0.84
83101;SPS30;72973;51.784;4.660;2023-12-20T08:16:25;11.49;10.23;7.73;4.45;35.48;35.43;35.07;32.11;23.34;0.84
83101;SPS30;72973;51.784;4.660;2023-12-20T08:18:51;11.58;10.26;7.65;4.24;33.85;33.79;33.42;30.32;21.55;0.89
83101;SPS30;72973;51.784;4.660;2023-12-20T08:21:18;12.16;10.70;7.84;4.13;32.94;32.88;32.47;29.08;19.95;0.93
83101;SPS30;72973;51.784;4.660;2023-12-20T08:23:46;12.64;11.14;8.19;4.37;34.85;34.79;34.37;30.88;21.37;0.90
83101;SPS30;72973;51.784;4.660;2023-12-20T08:26:13;12.59;11.12;8.24;4.49;35.80;35.74;35.33;31.91;22.41;0.91
83101;SPS30;72973;51.784;4.660;2023-12-20T08:28:40;13.19;11.62;8.54;4.55;36.31;36.24;35.80;32.16;22.24;0.94
83101;SPS30;72973;51.784;4.660;2023-12-20T08:31:07;12.58;11.09;8.15;4.34;34.61;34.55;34.13;30.65;21.18;0.93
83101;SPS30;72973;51.784;4.660;2023-12-20T08:33:40;11.71;10.34;7.65;4.15;33.09;33.04;32.65;29.46;20.63;0.92
83101;SPS30;72973;51.784;4.660;2023-12-20T08:36:07;11.94;10.59;7.93;4.44;35.44;35.38;35.00;31.84;22.78;0.90
83101;SPS30;72973;51.784;4.660;2023-12-20T08:38:33;11.97;10.57;7.82;4.24;33.83;33.78;33.38;30.12;21.10;0.91
83101;SPS30;72973;51.784;4.660;2023-12-20T08:40:59;13.05;11.50;8.44;4.48;35.69;35.63;35.19;31.57;21.76;0.92
83101;SPS30;72973;51.784;4.660;2023-12-20T08:43:27;12.76;11.27;8.35;4.55;36.25;36.19;35.77;32.31;22.68;0.89
83101;SPS30;72973;51.784;4.660;2023-12-20T08:45:53;12.19;10.80;8.06;4.49;35.82;35.77;35.37;32.13;22.89;0.88
83101;SPS30;72973;51.784;4.660;2023-12-20T08:48:20;12.54;11.10;8.28;4.60;36.68;36.62;36.22;32.87;23.37;0.90
83101;SPS30;72973;51.784;4.660;2023-12-20T08:50:46;11.60;10.26;7.62;4.18;33.33;33.28;32.90;29.77;21.00;0.90
83101;SPS30;72973;51.784;4.660;2023-12-20T08:53:14;11.49;10.15;7.51;4.09;32.58;32.53;32.15;29.03;20.36;0.91
83101;SPS30;72973;51.784;4.660;2023-12-20T08:55:42;12.87;11.35;8.36;4.47;35.66;35.60;35.17;31.62;21.93;0.90
83101;SPS30;72973;51.784;4.660;2023-12-20T08:58:08;11.43;10.10;7.49;4.09;32.60;32.55;32.18;29.08;20.44;0.88
83101;SPS30;72973;51.784;4.660;2023-12-20T09:00:35;11.98;10.54;7.71;4.05;32.27;32.22;31.81;28.46;19.47;0.93
83101;SPS30;72973;51.784;4.660;2023-12-20T09:03:02;12.58;11.07;8.11;4.28;34.09;34.04;33.61;30.10;20.66;0.92